Lake Tamarack, New Jersey
Current Conditions -  °F | °C
As of 7:53 AM on Sunday 23 Nov 2014 (Local Time) from KFWN Reporting Station
Overcast Overcast  
Wind Chill: 40°   Ceiling: 7000
Heat Index: 40°   Visibility: 10mi
Dew Point: 21°   Wind: 3mph
Humidity: 47%   Direction: 230°SW
Pressure: 30.18"   Gusts: NA
Location:  41.1122°N, 74.4998°W
Report Text: KFWN 231253Z AUTO 23003KT 10SM BKN070 OVC090 04/M06 A3018 RMK AO2 SLP223 T00441061
Loading
Personal Weather Stations






























Interactive Weather Map New forecast layout! Learn more

10-Day Weather Forecast

Advertisements
Track Severe Weather on mobile